Flight Track Log - Related Links

Times and Time Zones

All times are in EDT time to prevent confusion due to time zone crossing. See the EMD21 flight status page for this flight to view local times or setup timezone preferences in your user account.

Time Position Orientation Groundspeed Altitude Reporting Facility
EDT Latitude Longitude Course Direction KTS MPH feet Rate Location/Type
Tue 04:57:27 AM 36.1814 -95.8989 158° South 137 158 1,100  Level Kansas City Center
Tue 04:58:34 AM 36.1442 -95.8803 158° South 137 158 2,700 1,376 Climbing Kansas City Center
Tue 04:59:16 AM 36.1214 -95.8697 159° South 137 158 3,600 1,235 Climbing Kansas City Center
Tue 05:00:16 AM 36.0856 -95.8525 159° South 137 158 4,800 1,300 Climbing Kansas City Center
Tue 05:01:16 AM 36.0492 -95.8331 157° South 139 160 6,200 1,220 Climbing Kansas City Center
Tue 05:02:19 AM 36.0106 -95.8172 162° South 142 163 7,300 1,171 Climbing Kansas City Center
Tue 05:03:19 AM 35.9728 -95.8011 161° South 144 166 8,600 1,190 Climbing Kansas City Center
Tue 05:04:20 AM 35.9367 -95.7825 157° South 142 163 9,700 1,131 Climbing Kansas City Center
Tue 05:05:21 AM 35.8975 -95.7656 161° South 144 166 10,900 1,190 Climbing Kansas City Center
Tue 05:06:21 AM 35.8578 -95.7694 185° South 144 166 12,100 1,091 Climbing Kansas City Center
Tue 05:07:22 AM 35.8183 -95.7683 179° South 142 163 13,100 1,033 Climbing Kansas City Center
Tue 05:08:23 AM 35.7803 -95.7617 172° South 140 161 14,200 958 Climbing Kansas City Center
Tue 05:09:21 AM 35.7414 -95.7589 177° South 140 161 15,000 397 Climbing Kansas City Center
Tue 05:10:24 AM 35.6936 -95.7542 175° South 161 185 15,000  Level Kansas City Center
Tue 05:11:22 AM 35.6394 -95.7508 177° South 187 215 15,000  Level Kansas City Center
Tue 05:12:23 AM 35.5719 -95.7447 176° South 199 229 15,000  Level Kansas City Center
Tue 05:13:23 AM 35.5189 -95.7400 176° South 194 223 15,000  Level Kansas City Center
Tue 05:14:25 AM 35.4656 -95.7358 176° South 193 222 15,000  Level Kansas City Center
Tue 05:15:27 AM 35.4133 -95.7322 177° South 188 216 15,000 300 Level Kansas City Center
Tue 05:16:25 AM 35.3628 -95.7278 176° South 185 213 15,600 595 Climbing Kansas City Center
Tue 05:17:28 AM 35.3194 -95.7214 173° South 164 189 16,200 579 Climbing Kansas City Center
Tue 05:18:50 AM 35.2550 -95.7178 177° South 165 190 17,000 338 Climbing Fort Worth Center
Tue 05:19:50 AM 35.2050 -95.7164 179° South 170 196 17,000  Level Fort Worth Center
Tue 05:20:50 AM 35.1486 -95.7125 177° South 185 213 17,000  Level Fort Worth Center
Tue 05:21:50 AM 35.0964 -95.7058 174° South 196 226 17,000  Level Fort Worth Center
Tue 05:22:50 AM 35.0422 -95.7019 177° South 196 226 17,000  Level Fort Worth Center
Tue 05:23:50 AM 34.9900 -95.6978 176° South 196 226 17,000  Level Fort Worth Center
Tue 05:24:50 AM 34.9336 -95.6914 175° South 201 231 17,000  Level Fort Worth Center
Tue 05:25:50 AM 34.8792 -95.6900 179° South 201 231 17,000  Level Fort Worth Center
Tue 05:26:50 AM 34.8228 -95.6861 177° South 201 231 17,000  Level Fort Worth Center
Tue 05:27:50 AM 34.7708 -95.6844 178° South 196 226 17,000  Level Fort Worth Center
Tue 05:28:50 AM 34.7206 -95.6756 172° South 196 226 17,000  Level Fort Worth Center
Tue 05:29:50 AM 34.6661 -95.6689 174° South 196 226 17,000  Level Fort Worth Center
Tue 05:30:50 AM 34.6119 -95.6675 179° South 201 231 17,000  Level Fort Worth Center
Tue 05:31:50 AM 34.5575 -95.6636 177° South 195 224 17,000  Level Fort Worth Center
Tue 05:32:50 AM 34.5053 -95.6597 176° South 195 224 17,000  Level Fort Worth Center
Tue 05:33:50 AM 34.4511 -95.6556 176° South 195 224 17,000  Level Fort Worth Center
Tue 05:34:50 AM 34.3925 -95.6519 177° South 195 224 17,000  Level Fort Worth Center
Tue 05:35:50 AM 34.3444 -95.6453 173° South 195 224 17,000  Level Fort Worth Center
Tue 05:36:50 AM 34.2881 -95.6414 177° South 195 224 17,000  Level Fort Worth Center
Tue 05:37:50 AM 34.2317 -95.6375 177° South 195 224 17,000  Level Fort Worth Center
Tue 05:38:50 AM 34.1775 -95.6336 177° South 200 230 17,000  Level Fort Worth Center
Tue 05:39:50 AM 34.1231 -95.6297 177° South 200 230 17,000  Level Fort Worth Center
Tue 05:40:50 AM 34.0772 -95.6231 173° South 195 224 17,000  Level Fort Worth Center
Tue 05:41:50 AM 34.0208 -95.6167 175° South 195 224 17,000  Level Fort Worth Center
Tue 05:42:50 AM 33.9644 -95.6131 177° South 200 230 17,000  Level Fort Worth Center
Tue 05:43:50 AM 33.9122 -95.6089 176° South 200 230 17,000  Level Fort Worth Center
Tue 05:44:50 AM 33.8578 -95.6050 177° South 200 230 17,000  Level Fort Worth Center
Tue 05:45:50 AM 33.8033 -95.6011 177° South 200 230 17,000  Level Fort Worth Center
Tue 05:46:50 AM 33.7492 -95.5947 174° South 200 230 17,000  Level Fort Worth Center
Tue 05:47:50 AM 33.6969 -95.5908 176° South 200 230 17,000  Level Fort Worth Center
Tue 05:48:50 AM 33.6425 -95.5897 179° South 195 224 17,000  Level Fort Worth Center
Tue 05:49:50 AM 33.5903 -95.5833 174° South 202 232 17,000  Level Fort Worth Center
Tue 05:50:50 AM 33.5339 -95.5794 177° South 202 232 17,000  Level Fort Worth Center
Tue 05:51:50 AM 33.4775 -95.5756 177° South 197 227 17,000  Level Fort Worth Center
Tue 05:52:50 AM 33.4189 -95.5694 175° South 197 227 17,000  Level Fort Worth Center
Tue 05:53:50 AM 33.3667 -95.5656 176° South 197 227 17,000  Level Fort Worth Center
Tue 05:54:50 AM 33.3144 -95.5614 176° South 197 227 17,000  Level Fort Worth Center
Tue 05:55:50 AM 33.2600 -95.5553 175° South 197 227 17,000  Level Fort Worth Center
Tue 05:56:50 AM 33.2017 -95.5539 179° South 197 227 17,000  Level Fort Worth Center
Tue 05:57:50 AM 33.1514 -95.5475 174° South 197 227 17,000  Level Fort Worth Center
Tue 05:58:50 AM 33.0950 -95.5439 177° South 197 227 17,000  Level Fort Worth Center
Tue 05:59:50 AM 33.0428 -95.5400 176° South 197 227 17,000 -50 Level Fort Worth Center
Tue 06:00:50 AM 32.9822 -95.5361 177° South 197 227 16,900 -50 Descending Fort Worth Center
Tue 06:01:50 AM 32.9258 -95.5300 175° South 197 227 16,900  Level Fort Worth Center
Tue 06:02:50 AM 32.8756 -95.5286 179° South 197 227 16,900  Level Fort Worth Center
Tue 06:03:50 AM 32.8172 -95.5225 175° South 202 232 16,900  Level Fort Worth Center
Tue 06:04:50 AM 32.7628 -95.5211 179° South 197 227 16,900  Level Fort Worth Center
Tue 06:05:50 AM 32.7083 -95.5147 174° South 197 227 16,900  Level Fort Worth Center
Tue 06:06:50 AM 32.6561 -95.5086 174° South 197 227 16,900  Level Fort Worth Center
Tue 06:07:50 AM 32.6019 -95.5047 177° South 197 227 16,900  Level Fort Worth Center
Tue 06:08:50 AM 32.5456 -95.5033 179° South 197 227 16,900  Level Fort Worth Center
Tue 06:09:50 AM 32.4911 -95.4972 175° South 203 234 16,900  Level Fort Worth Center
Tue 06:10:50 AM 32.4347 -95.4936 177° South 198 228 16,900  Level Fort Worth Center
Tue 06:11:50 AM 32.3803 -95.4872 174° South 198 228 16,900  Level Fort Worth Center
Tue 06:12:50 AM 32.3239 -95.4836 177° South 203 234 16,900  Level Fort Worth Center
Tue 06:13:50 AM 32.2653 -95.4822 179° South 203 234 16,900  Level Fort Worth Center
Tue 06:14:50 AM 32.2111 -95.4786 177° South 203 234 16,900  Level Fort Worth Center
Tue 06:15:50 AM 32.1631 -95.4747 176° South 200 230 16,900  Level Fort Worth Center
Tue 06:16:50 AM 32.1044 -95.4708 177° South 200 230 16,900  Level Fort Worth Center
Tue 06:17:50 AM 32.0500 -95.4672 177° South 200 230 16,900  Level Fort Worth Center
Tue 06:18:50 AM 31.9917 -95.4611 175° South 200 230 16,900  Level Fort Worth Center
Tue 06:20:25 AM 31.9044 -95.4508 174° South 206 237 16,900  Level Houston Center
Tue 06:21:25 AM 31.8469 -95.4467 176° South 208 239 16,900  Level Houston Center
Tue 06:22:25 AM 31.7914 -95.4428 177° South 202 232 16,900  Level Houston Center
Tue 06:23:26 AM 31.7344 -95.4367 175° South 203 234 16,900 50 Level Houston Center
Tue 06:24:26 AM 31.6792 -95.4322 176° South 201 231 17,000 50 Climbing Houston Center
Tue 06:25:26 AM 31.6236 -95.4283 177° South 201 231 17,000  Level Houston Center
Tue 06:26:27 AM 31.5667 -95.4250 177° South 204 235 17,000  Level Houston Center
Tue 06:27:27 AM 31.5108 -95.4203 176° South 202 232 17,000  Level Houston Center
Tue 06:28:27 AM 31.4528 -95.4167 177° South 208 239 17,000  Level Houston Center
Tue 06:29:28 AM 31.3956 -95.4122 176° South 205 236 17,000  Level Houston Center
Tue 06:30:28 AM 31.3261 -95.4064 176° South 207 238 17,000  Level Houston Center
Tue 06:31:28 AM 31.2689 -95.4017 176° South 206 237 17,000  Level Houston Center
Tue 06:32:29 AM 31.2114 -95.3964 176° South 207 238 17,000  Level Houston Center
Tue 06:33:29 AM 31.1542 -95.3936 178° South 207 238 17,000  Level Houston Center
Tue 06:34:29 AM 31.0964 -95.3903 177° South 207 238 17,000  Level Houston Center
Tue 06:35:08 AM 31.0572 -95.3853 174° South 211 243 17,000  Level Houston Center
Tue 06:36:30 AM 30.9800 -95.3794 176° South 210 242 17,000  Level Houston Center
Tue 06:37:31 AM 30.9222 -95.3772 178° South 208 239 17,000  Level Houston Center
Tue 06:38:31 AM 30.8642 -95.3728 176° South 209 241 17,000  Level Houston Center
Tue 06:39:31 AM 30.8053 -95.3681 176° South 211 243 17,000  Level Houston Center
Tue 06:40:32 AM 30.7469 -95.3633 176° South 210 242 17,000  Level Houston Center
Tue 06:41:32 AM 30.6892 -95.3581 176° South 209 241 17,000  Level Houston Center
Tue 06:42:31 AM 30.6281 -95.3522 175° South 210 242 17,000  Level Houston Center
Tue 06:43:31 AM 30.5692 -95.3497 178° South 209 241 17,000  Level Houston Center
Tue 06:44:32 AM 30.5119 -95.3447 176° South 209 241 17,000 -496 Level Houston Center
Tue 06:45:32 AM 30.4506 -95.3400 176° South 226 260 16,000 -1,041 Descending Houston Center
Tue 06:46:33 AM 30.3831 -95.3361 177° South 240 276 14,900 -992 Descending Houston Center
Tue 06:47:33 AM 30.3133 -95.3300 176° South 243 280 14,000 -1,041 Descending Houston Center
Tue 06:48:34 AM 30.2478 -95.3258 177° South 233 268 12,800 -1,131 Descending Houston Center
Tue 06:49:35 AM 30.1875 -95.3222 177° South 237 273 11,700 -1,304 Descending Houston Center
Tue 06:50:29 AM 30.1264 -95.3525 203° Southwest 246 283 10,300 -1,190 Descending Houston Center
Tue 06:51:36 AM 30.0622 -95.3869 205° Southwest 225 259 9,300 -938 Descending Houston Center
Tue 06:52:37 AM 29.9997 -95.3919 184° South 225 259 8,300 -1,091 Descending Houston Center
Tue 06:53:37 AM 29.9458 -95.3872 176° South 221 254 7,100 -1,350 Descending Houston Center
Tue 06:54:37 AM 29.8867 -95.3792 173° South 216 249 5,600 -1,537 Descending Houston Center
Tue 06:55:38 AM 29.8261 -95.3528 159° South 198 228 4,000 -1,388 Descending Houston Center
Tue 06:56:38 AM 29.7853 -95.3261 150° Southeast 200 230 2,800 -893 Descending Houston Center
Tue 06:57:39 AM 29.7394 -95.2964 151° Southeast 197 227 2,200 -744 Descending Houston Center
Tue 06:58:39 AM 29.7039 -95.2867 167° South 157 181 1,300 -893 Descending Houston Center
Tue 06:59:40 AM 29.6672 -95.2853 178° South 141 162 400 -595 Descending Houston Center
Tue 07:00:40 AM 29.6278 -95.2847 179° South 135 155 100 -300 Descending Houston Center

Login

Don't have an account? Register now (free) for customized features, flight alerts, and more!